LiveATC.Net - Listen to live air traffic control over the Internet!


ICAO: KIKV  IATA: IKV   Airport: Ankeny Regional Airport
City: Ankeny   State/Province: Iowa
Country: United States   Continent: North America
KIKV METAR Weather: KIKV 152255Z AUTO 17011KT 10SM FEW047 30/20 A2990 RMK AO2
KIKV Flight Activity (FlightAware)
KIKV Airport Info   (iFlightPlanner)
KIKV VFR Sectional Chart   (iFlightPlanner) 
KIKV IFR Low Chart   (iFlightPlanner) 

KIKV Del/CTAF
Feed Status: UP   Listeners: 0
Listen in your browser - HTML5 player (in browser, HTML5)
Click here to listen with your own player (launches your MP3 player)
KIKV Del/CTAF Audio Archives
FacilityFrequency
Ankeny Clearance Delivery (Des Moines via RCO)126.650
Ankeny CTAF122.900

NOTICE

Unauthorized use prohibited. See LiveATC.net Terms of Service


Find LiveATC Audio Streams


Airport/ARTCC Code

Frequency Search
(e.g., 124.400, 128.75)
Site-wide search
 


Browse LiveATC Feeds
Top 50 LiveATC Feeds
LiveATC Feed Map
Bad Weather Areas

LiveATC FAQ
Offer LiveATC feed
Contact LiveATC.net
Press Inquiries

LiveATC on iPhone
LiveATC on Android

Windows Phone
Windows 8/10

LiveATC Mobile
(Mobile browser)

ATC Audio Archives
Interesting Recordings

LiveATC Forums


Home Page
About LiveATC.net
Make a Donation
Terms of Use
Privacy Policy

Canadian Air Freqs

AIRMETs/SIGMETs

FAA Airport Status
Nat'l Airspace Status
Arrival Demand Charts


Server Software By:
Icecast.org
Liquidsoap